| time (UTC) | temp C | wind direction | speed KPH | gust KPH | rain 1hr cm | rain 24hr cm | rain mn cm | humidity % | barometer mb |
| 20260510044915 | 14 | 276 | 4.8 | 9.7 | 0.00 | 0.00 | 0.00 | 67 | 1013.8 |
| 20260510044412 | 14 | 299 | 4.8 | 6.4 | 0.00 | 0.00 | 0.00 | 66 | 1013.7 |
| 20260510043909 | 14 | 270 | 3.2 | 6.4 | 0.00 | 0.00 | 0.00 | 67 | 1013.5 |
| 20260510043404 | 14 | 273 | 3.2 | 4.8 | 0.00 | 0.00 | 0.00 | 66 | 1013.4 |
| 20260510042903 | 14 | 316 | 3.2 | 4.8 | 0.00 | 0.00 | 0.00 | 66 | 1013.4 |
| 20260510042358 | 14 | 255 | 3.2 | 6.4 | 0.00 | 0.00 | 0.00 | 66 | 1013.5 |
| 20260510041854 | 15 | 274 | 3.2 | 6.4 | 0.00 | 0.00 | 0.00 | 65 | 1013.4 |
| 20260510041352 | 15 | 271 | 3.2 | 4.8 | 0.00 | 0.00 | 0.00 | 65 | 1013.5 |
| 20260510040849 | 15 | 294 | 4.8 | 6.4 | 0.00 | 0.00 | 0.00 | 65 | 1013.3 |
| 20260510040346 | 15 | 262 | 6.4 | 6.4 | 0.00 | 0.00 | 0.00 | 65 | 1013.5 |
| 20260510035841 | 15 | 293 | 4.8 | 6.4 | 0.00 | 0.00 | 0.00 | 65 | 1013.5 |
| 20260510035337 | 15 | 280 | 3.2 | 6.4 | 0.00 | 0.00 | 0.00 | 63 | 1013.5 |
| 20260510034833 | 15 | 258 | 3.2 | 6.4 | 0.00 | 0.00 | 0.00 | 63 | 1013.5 |
| 20260510034331 | 15 | 268 | 3.2 | 4.8 | 0.00 | 0.00 | 0.00 | 63 | 1013.7 |
| 20260510033827 | 15 | 267 | 4.8 | 6.4 | 0.00 | 0.00 | 0.00 | 63 | 1013.4 |
| 20260510033324 | 15 | 296 | 4.8 | 6.4 | 0.00 | 0.00 | 0.00 | 64 | 1013.4 |
| 20260510032821 | 15 | 307 | 3.2 | 11.3 | 0.00 | 0.00 | 0.00 | 63 | 1013.4 |
| 20260510032318 | 15 | 279 | 3.2 | 6.4 | 0.00 | 0.00 | 0.00 | 64 | 1013.5 |
| 20260510031813 | 15 | 287 | 3.2 | 11.3 | 0.00 | 0.00 | 0.00 | 63 | 1013.4 |
| 20260510031309 | 15 | 294 | 3.2 | 4.8 | 0.00 | 0.00 | 0.00 | 62 | 1013.3 |
| 20260510030809 | 15 | 286 | 4.8 | 4.8 | 0.00 | 0.00 | 0.00 | 63 | 1013.3 |
| 20260510030306 | 15 | 280 | 3.2 | 4.8 | 0.00 | 0.00 | 0.00 | 62 | 1013.3 |
| 20260510025803 | 15 | 276 | 3.2 | 6.4 | 0.00 | 0.00 | 0.00 | 65 | 1013.5 |
| 20260510025300 | 14 | 275 | 4.8 | 6.4 | 0.00 | 0.00 | 0.00 | 64 | 1013.2 |
| 20260510024757 | 14 | 275 | 4.8 | 6.4 | 0.00 | 0.00 | 0.00 | 65 | 1013.3 |
| 20260510024254 | 14 | 263 | 3.2 | 3.2 | 0.00 | 0.00 | 0.00 | 64 | 1013.3 |
| 20260510023750 | 14 | 285 | 3.2 | 6.4 | 0.00 | 0.00 | 0.00 | 66 | 1013.2 |
| 20260510023247 | 14 | 274 | 1.6 | 4.8 | 0.00 | 0.00 | 0.00 | 64 | 1013.1 |
| 20260510022744 | 14 | 281 | 3.2 | 4.8 | 0.00 | 0.00 | 0.00 | 64 | 1013.2 |
| 20260510022243 | 15 | 282 | 4.8 | 4.8 | 0.00 | 0.00 | 0.00 | 64 | 1013.1 |
| 20260510021742 | 15 | 279 | 3.2 | 4.8 | 0.00 | 0.00 | 0.00 | 64 | 1013.2 |
| 20260510021241 | 15 | 280 | 3.2 | 3.2 | 0.00 | 0.00 | 0.00 | 63 | 1013.2 |
| 20260510020737 | 15 | 273 | 3.2 | 4.8 | 0.00 | 0.00 | 0.00 | 64 | 1013.1 |
| 20260510020236 | 15 | 277 | 3.2 | 4.8 | 0.00 | 0.00 | 0.00 | 62 | 1013.0 |
| 20260510015733 | 15 | 275 | 3.2 | 6.4 | 0.00 | 0.00 | 0.00 | 62 | 1012.9 |
| 20260510015229 | 15 | 282 | 3.2 | 4.8 | 0.00 | 0.00 | 0.00 | 63 | 1012.6 |
| 20260510014724 | 15 | 287 | 4.8 | 4.8 | 0.00 | 0.00 | 0.00 | 63 | 1012.6 |
| 20260510014222 | 15 | 276 | 1.6 | 3.2 | 0.00 | 0.00 | 0.00 | 62 | 1012.5 |
| 20260510013717 | 15 | 281 | 3.2 | 4.8 | 0.00 | 0.00 | 0.00 | 62 | 1012.6 |
| 20260510013214 | 14 | 267 | 1.6 | 3.2 | 0.00 | 0.00 | 0.00 | 62 | 1012.5 |
| 20260510012713 | 15 | 264 | 3.2 | 3.2 | 0.00 | 0.00 | 0.00 | 63 | 1012.3 |
| 20260510012209 | 15 | 274 | 0.0 | 3.2 | 0.00 | 0.00 | 0.00 | 62 | 1012.1 |
| 20260510011704 | 15 | 280 | 3.2 | 3.2 | 0.00 | 0.00 | 0.00 | 63 | 1012.3 |
| 20260510011200 | 15 | 287 | 3.2 | 4.8 | 0.00 | 0.00 | 0.00 | 62 | 1012.1 |
| 20260510010656 | 15 | 276 | 1.6 | 4.8 | 0.00 | 0.00 | 0.00 | 61 | 1012.0 |
| 20260510010148 | 15 | 270 | 3.2 | 4.8 | 0.00 | 0.00 | 0.00 | 62 | 1011.9 |
| 20260510005644 | 16 | 268 | 0.0 | 1.6 | 0.00 | 0.00 | 0.00 | 59 | 1011.9 |
| 20260510005141 | 16 | 277 | 3.2 | 4.8 | 0.00 | 0.00 | 0.00 | 59 | 1011.6 |
| 20260510004639 | 16 | 280 | 3.2 | 4.8 | 0.00 | 0.00 | 0.00 | 60 | 1011.6 |
| 20260510004137 | 16 | 285 | 3.2 | 3.2 | 0.00 | 0.00 | 0.00 | 58 | 1011.7 |
| 20260510003634 | 16 | 278 | 1.6 | 3.2 | 0.00 | 0.00 | 0.00 | 57 | 1011.6 |
| 20260510003130 | 16 | 284 | 3.2 | 3.2 | 0.00 | 0.00 | 0.00 | 56 | 1011.4 |
| 20260510002629 | 16 | 244 | 1.6 | 3.2 | 0.00 | 0.00 | 0.00 | 55 | 1011.4 |
| 20260510002127 | 16 | 261 | 1.6 | 3.2 | 0.00 | 0.00 | 0.00 | 57 | 1011.3 |
| 20260510001623 | 17 | 232 | 1.6 | 1.6 | 0.00 | 0.00 | 0.00 | 55 | 1011.4 |
| 20260510001122 | 17 | 257 | 1.6 | 3.2 | 0.00 | 0.00 | 0.00 | 54 | 1011.2 |
| 20260510000622 | 16 | 266 | 6.4 | 9.7 | 0.00 | 0.00 | 0.00 | 54 | 1011.0 |
| 20260510000120 | 16 | 289 | 1.6 | 4.8 | 0.00 | 0.00 | 0.00 | 57 | 1011.0 |
| 20260509235616 | 17 | 268 | 1.6 | 1.6 | 0.00 | 0.00 | 0.00 | 58 | 1010.9 |
| 20260509235113 | 17 | 264 | 0.0 | 1.6 | 0.00 | 0.00 | 0.00 | 54 | 1010.8 |
| 20260509234609 | 18 | 264 | 1.6 | 3.2 | 0.00 | 0.00 | 0.00 | 53 | 1010.7 |
| 20260509234107 | 18 | 215 | 0.0 | 1.6 | 0.00 | 0.00 | 0.00 | 53 | 1011.0 |
| 20260509233604 | 18 | 233 | 4.8 | 4.8 | 0.00 | 0.00 | 0.00 | 50 | 1011.0 |
| 20260509233101 | 18 | 271 | 3.2 | 4.8 | 0.00 | 0.00 | 0.00 | 50 | 1011.0 |
| 20260509232557 | 18 | 233 | 3.2 | 6.4 | 0.00 | 0.00 | 0.00 | 49 | 1010.9 |
| 20260509232055 | 19 | 232 | 4.8 | 14.5 | 0.00 | 0.00 | 0.00 | 48 | 1011.0 |
| 20260509231551 | 19 | 241 | 1.6 | 4.8 | 0.00 | 0.00 | 0.00 | 48 | 1011.0 |
| 20260509231049 | 19 | 212 | 3.2 | 3.2 | 0.00 | 0.00 | 0.00 | 50 | 1011.0 |
| 20260509230545 | 19 | 253 | 0.0 | 3.2 | 0.00 | 0.00 | 0.00 | 48 | 1011.0 |
| 20260509230043 | 19 | 96 | 1.6 | 3.2 | 0.00 | 0.00 | 0.00 | 47 | 1011.1 |
| 20260509225538 | 20 | 300 | 3.2 | 4.8 | 0.00 | 0.00 | 0.00 | 47 | 1011.1 |
| 20260509225033 | 20 | 236 | 1.6 | 4.8 | 0.00 | 0.00 | 0.00 | 46 | 1011.0 |
| 20260509224529 | 20 | 234 | 3.2 | 6.4 | 0.00 | 0.00 | 0.00 | 45 | 1010.9 |
| 20260509224026 | 21 | 306 | 4.8 | 9.7 | 0.00 | 0.00 | 0.00 | 44 | 1011.1 |
| 20260509223523 | 21 | 217 | 6.4 | 11.3 | 0.00 | 0.00 | 0.00 | 43 | 1011.0 |
| 20260509223021 | 21 | 159 | 1.6 | 12.9 | 0.00 | 0.00 | 0.00 | 45 | 1011.1 |
| 20260509222517 | 21 | 217 | 8.0 | 14.5 | 0.00 | 0.00 | 0.00 | 43 | 1011.0 |
| 20260509222012 | 20 | 240 | 3.2 | 9.7 | 0.00 | 0.00 | 0.00 | 43 | 1011.1 |
| 20260509221509 | 21 | 259 | 6.4 | 17.7 | 0.00 | 0.00 | 0.00 | 43 | 1011.1 |
| 20260509221004 | 21 | 319 | 11.3 | 20.9 | 0.00 | 0.00 | 0.00 | 42 | 1011.2 |
| 20260509220501 | 21 | 254 | 8.0 | 17.7 | 0.00 | 0.00 | 0.00 | 42 | 1010.9 |
| 20260509215957 | 21 | 232 | 3.2 | 20.9 | 0.00 | 0.00 | 0.00 | 44 | 1011.0 |
| 20260509215452 | 20 | 305 | 8.0 | 12.9 | 0.00 | 0.00 | 0.00 | 43 | 1010.9 |
| 20260509214950 | 20 | 266 | 4.8 | 11.3 | 0.00 | 0.00 | 0.00 | 45 | 1011.0 |
| 20260509214447 | 20 | 284 | 3.2 | 6.4 | 0.00 | 0.00 | 0.00 | 46 | 1010.8 |
| 20260509213944 | 20 | 296 | 6.4 | 12.9 | 0.00 | 0.00 | 0.00 | 45 | 1010.9 |
| 20260509213440 | 20 | 233 | 3.2 | 4.8 | 0.00 | 0.00 | 0.00 | 45 | 1010.9 |
| 20260509212937 | 21 | 281 | 8.0 | 16.1 | 0.00 | 0.00 | 0.00 | 44 | 1010.8 |
| 20260509212435 | 20 | 345 | 3.2 | 6.4 | 0.00 | 0.00 | 0.00 | 45 | 1010.7 |
| 20260509211931 | 20 | 284 | 0.0 | 3.2 | 0.00 | 0.00 | 0.00 | 52 | 1010.9 |
| 20260509211426 | 20 | 137 | 4.8 | 6.4 | 0.00 | 0.00 | 0.00 | 52 | 1010.9 |
| 20260509210923 | 19 | 76 | 1.6 | 1.6 | 0.00 | 0.00 | 0.00 | 50 | 1010.6 |
| 20260509210420 | 20 | 57 | 0.0 | 3.2 | 0.00 | 0.00 | 0.00 | 53 | 1010.7 |
| 20260509205915 | 20 | 21 | 4.8 | 6.4 | 0.00 | 0.00 | 0.00 | 50 | 1010.6 |
| 20260509205415 | 20 | 153 | 1.6 | 3.2 | 0.00 | 0.00 | 0.00 | 49 | 1010.6 |
| 20260509204911 | 20 | 337 | 4.8 | 4.8 | 0.00 | 0.00 | 0.00 | 48 | 1010.6 |
| 20260509204408 | 19 | 247 | 0.0 | 3.2 | 0.00 | 0.00 | 0.00 | 52 | 1010.7 |
| 20260509203904 | 20 | 12 | 3.2 | 3.2 | 0.00 | 0.00 | 0.00 | 46 | 1010.6 |
| 20260509203401 | 19 | 0 | 0.0 | 1.6 | 0.00 | 0.00 | 0.00 | 51 | 1010.5 |
| 20260509202858 | 19 | 0 | 3.2 | 6.4 | 0.00 | 0.00 | 0.00 | 54 | 1010.7 |
| 20260509202354 | 19 | 30 | 6.4 | 9.7 | 0.00 | 0.00 | 0.00 | 53 | 1010.4 |
| 20260509201849 | 19 | 18 | 4.8 | 9.7 | 0.00 | 0.00 | 0.00 | 54 | 1010.3 |
| 20260509201345 | 19 | 359 | 3.2 | 4.8 | 0.00 | 0.00 | 0.00 | 53 | 1010.6 |
| 20260509200842 | 19 | 39 | 3.2 | 4.8 | 0.00 | 0.00 | 0.00 | 53 | 1010.5 |
| 20260509200336 | 18 | 332 | 1.6 | 3.2 | 0.00 | 0.00 | 0.00 | 52 | 1010.8 |
| 20260509195834 | 18 | 346 | 1.6 | 3.2 | 0.00 | 0.00 | 0.00 | 51 | 1010.9 |
| 20260509195333 | 19 | 326 | 1.6 | 4.8 | 0.00 | 0.00 | 0.00 | 50 | 1010.7 |
| 20260509194828 | 19 | 286 | 1.6 | 6.4 | 0.00 | 0.00 | 0.00 | 50 | 1010.7 |
| 20260509194324 | 19 | 325 | 3.2 | 4.8 | 0.00 | 0.00 | 0.00 | 49 | 1010.7 |
| 20260509193821 | 20 | 355 | 1.6 | 1.6 | 0.00 | 0.00 | 0.00 | 46 | 1010.7 |
| 20260509193320 | 20 | 50 | 0.0 | 1.6 | 0.00 | 0.00 | 0.00 | 49 | 1010.8 |
| 20260509192817 | 20 | 240 | 0.0 | 1.6 | 0.00 | 0.00 | 0.00 | 46 | 1010.7 |
| 20260509192313 | 20 | 244 | 1.6 | 3.2 | 0.00 | 0.00 | 0.00 | 45 | 1010.9 |
| 20260509191808 | 20 | 115 | 0.0 | 1.6 | 0.00 | 0.00 | 0.00 | 44 | 1010.7 |
| 20260509191304 | 20 | 146 | 0.0 | 0.0 | 0.00 | 0.00 | 0.00 | 45 | 1010.8 |
| 20260509190800 | 19 | 132 | 0.0 | 1.6 | 0.00 | 0.00 | 0.00 | 46 | 1010.7 |
| 20260509190258 | 19 | 140 | 3.2 | 6.4 | 0.00 | 0.00 | 0.00 | 48 | 1010.7 |
| 20260509185755 | 19 | 139 | 3.2 | 4.8 | 0.00 | 0.00 | 0.00 | 48 | 1010.7 |
| 20260509185251 | 19 | 82 | 1.6 | 3.2 | 0.00 | 0.00 | 0.00 | 47 | 1010.9 |
| 20260509184748 | 19 | 88 | 3.2 | 6.4 | 0.00 | 0.00 | 0.00 | 46 | 1010.8 |
| 20260509184246 | 20 | 88 | 11.3 | 12.9 | 0.00 | 0.00 | 0.00 | 45 | 1010.9 |
| 20260509183742 | 21 | 82 | 6.4 | 9.7 | 0.00 | 0.00 | 0.00 | 44 | 1010.8 |
| 20260509183237 | 21 | 82 | 3.2 | 3.2 | 0.00 | 0.00 | 0.00 | 45 | 1010.8 |
| 20260509182733 | 18 | 80 | 0.0 | 3.2 | 0.00 | 0.00 | 0.00 | 49 | 1011.1 |
| 20260509182231 | 18 | 42 | 1.6 | 6.4 | 0.00 | 0.00 | 0.00 | 51 | 1011.1 |
| 20260509181728 | 17 | 133 | 3.2 | 6.4 | 0.00 | 0.00 | 0.00 | 54 | 1011.1 |
| 20260509181225 | 17 | 93 | 1.6 | 9.7 | 0.00 | 0.00 | 0.00 | 52 | 1011.4 |
| 20260509180722 | 17 | 104 | 8.0 | 9.7 | 0.00 | 0.00 | 0.00 | 52 | 1011.3 |
| 20260509180219 | 17 | 109 | 0.0 | 3.2 | 0.00 | 0.00 | 0.00 | 55 | 1011.6 |
| 20260509175715 | 17 | 147 | 3.2 | 4.8 | 0.00 | 0.00 | 0.00 | 55 | 1011.8 |
| 20260509175212 | 16 | 173 | 3.2 | 4.8 | 0.00 | 0.00 | 0.00 | 55 | 1011.7 |
| 20260509174707 | 16 | 129 | 3.2 | 9.7 | 0.00 | 0.00 | 0.00 | 55 | 1011.8 |
| 20260509174202 | 16 | 154 | 4.8 | 6.4 | 0.00 | 0.00 | 0.00 | 54 | 1011.8 |
| 20260509173659 | 16 | 113 | 8.0 | 11.3 | 0.00 | 0.00 | 0.00 | 55 | 1011.8 |
| 20260509173155 | 17 | 90 | 8.0 | 9.7 | 0.00 | 0.00 | 0.00 | 53 | 1011.9 |
| 20260509172651 | 17 | 147 | 4.8 | 6.4 | 0.00 | 0.00 | 0.00 | 53 | 1011.9 |
| 20260509172147 | 17 | 21 | 1.6 | 9.7 | 0.00 | 0.00 | 0.00 | 50 | 1012.0 |
| 20260509171638 | 17 | 133 | 0.0 | 0.0 | 0.00 | 0.00 | 0.00 | 50 | 1012.1 |
| 20260509171135 | 17 | 157 | 3.2 | 3.2 | 0.00 | 0.00 | 0.00 | 54 | 1012.3 |
| 20260509170631 | 16 | 145 | 0.0 | 9.7 | 0.00 | 0.00 | 0.00 | 53 | 1012.1 |
| 20260509170127 | 16 | 103 | 1.6 | 4.8 | 0.00 | 0.00 | 0.00 | 54 | 1012.2 |
| 20260509165626 | 16 | 108 | 1.6 | 4.8 | 0.00 | 0.00 | 0.00 | 54 | 1012.6 |
| 20260509165122 | 16 | 137 | 3.2 | 4.8 | 0.00 | 0.00 | 0.00 | 53 | 1012.3 |
| 20260509164617 | 16 | 82 | 1.6 | 4.8 | 0.00 | 0.00 | 0.00 | 53 | 1012.5 |
| 20260509164114 | 16 | 130 | 0.0 | 1.6 | 0.00 | 0.00 | 0.00 | 55 | 1012.4 |
| 20260509163612 | 16 | 138 | 1.6 | 6.4 | 0.00 | 0.00 | 0.00 | 57 | 1012.4 |
| 20260509163107 | 16 | 132 | 1.6 | 3.2 | 0.00 | 0.00 | 0.00 | 55 | 1012.4 |
| 20260509162604 | 16 | 71 | 1.6 | 3.2 | 0.00 | 0.00 | 0.00 | 53 | 1012.5 |
| 20260509162059 | 16 | 40 | 3.2 | 4.8 | 0.00 | 0.00 | 0.00 | 55 | 1012.6 |
| 20260509161551 | 16 | 33 | 6.4 | 6.4 | 0.00 | 0.00 | 0.00 | 56 | 1012.4 |
| 20260509161051 | 16 | 70 | 4.8 | 9.7 | 0.00 | 0.00 | 0.00 | 55 | 1012.7 |
| 20260509160547 | 15 | 80 | 6.4 | 9.7 | 0.00 | 0.00 | 0.00 | 57 | 1012.6 |
| 20260509160043 | 15 | 31 | 4.8 | 4.8 | 0.00 | 0.00 | 0.00 | 58 | 1012.6 |
| 20260509155539 | 15 | 4 | 4.8 | 6.4 | 0.00 | 0.00 | 0.00 | 59 | 1012.9 |
| 20260509155035 | 15 | 21 | 3.2 | 4.8 | 0.00 | 0.00 | 0.00 | 58 | 1012.8 |
| 20260509154532 | 15 | 28 | 6.4 | 6.4 | 0.00 | 0.00 | 0.00 | 58 | 1012.9 |
| 20260509154030 | 15 | 341 | 3.2 | 6.4 | 0.00 | 0.00 | 0.00 | 59 | 1013.0 |
| 20260509153526 | 15 | 49 | 4.8 | 6.4 | 0.00 | 0.00 | 0.00 | 59 | 1012.9 |
| 20260509153023 | 15 | 41 | 3.2 | 11.3 | 0.00 | 0.00 | 0.00 | 59 | 1012.9 |
| 20260509152519 | 15 | 359 | 3.2 | 9.7 | 0.00 | 0.00 | 0.00 | 58 | 1012.9 |
| 20260509152015 | 15 | 7 | 3.2 | 6.4 | 0.00 | 0.00 | 0.00 | 58 | 1012.8 |
| 20260509151512 | 15 | 13 | 6.4 | 9.7 | 0.00 | 0.00 | 0.00 | 58 | 1012.7 |
| 20260509151010 | 15 | 329 | 1.6 | 6.4 | 0.00 | 0.00 | 0.00 | 59 | 1013.0 |
| 20260509150507 | 15 | 10 | 1.6 | 6.4 | 0.00 | 0.00 | 0.00 | 58 | 1012.7 |
| 20260509150006 | 15 | 17 | 3.2 | 6.4 | 0.00 | 0.00 | 0.00 | 59 | 1012.8 |
| 20260509145501 | 15 | 328 | 4.8 | 6.4 | 0.00 | 0.00 | 0.00 | 57 | 1012.7 |
| 20260509144956 | 15 | 338 | 3.2 | 12.9 | 0.00 | 0.00 | 0.00 | 56 | 1012.9 |
| 20260509144453 | 15 | 24 | 1.6 | 6.4 | 0.00 | 0.00 | 0.00 | 57 | 1012.7 |
| 20260509143950 | 15 | 1 | 8.0 | 9.7 | 0.00 | 0.00 | 0.00 | 58 | 1012.9 |
| 20260509143447 | 15 | 344 | 4.8 | 11.3 | 0.00 | 0.00 | 0.00 | 59 | 1012.8 |
| 20260509142943 | 15 | 10 | 3.2 | 4.8 | 0.00 | 0.00 | 0.00 | 60 | 1012.8 |
| 20260509142440 | 15 | 23 | 4.8 | 6.4 | 0.00 | 0.00 | 0.00 | 59 | 1012.7 |
| 20260509141935 | 15 | 36 | 3.2 | 3.2 | 0.00 | 0.00 | 0.00 | 58 | 1012.9 |
| 20260509141432 | 15 | 39 | 4.8 | 4.8 | 0.00 | 0.00 | 0.00 | 59 | 1012.9 |
| 20260509140929 | 15 | 59 | 1.6 | 6.4 | 0.00 | 0.00 | 0.00 | 57 | 1012.9 |
| 20260509140425 | 15 | 30 | 1.6 | 4.8 | 0.00 | 0.00 | 0.00 | 62 | 1012.9 |
| 20260509135924 | 15 | 51 | 0.0 | 3.2 | 0.00 | 0.00 | 0.00 | 61 | 1013.1 |
| 20260509135421 | 15 | 113 | 0.0 | 1.6 | 0.00 | 0.00 | 0.00 | 62 | 1013.0 |
| 20260509134918 | 14 | 113 | 0.0 | 1.6 | 0.00 | 0.00 | 0.00 | 63 | 1013.1 |
| 20260509134416 | 14 | 128 | 0.0 | 0.0 | 0.00 | 0.00 | 0.00 | 64 | 1013.2 |
| 20260509133913 | 13 | 89 | 0.0 | 1.6 | 0.00 | 0.00 | 0.00 | 66 | 1013.1 |
| 20260509133409 | 13 | 84 | 1.6 | 3.2 | 0.00 | 0.00 | 0.00 | 64 | 1013.3 |
| 20260509132908 | 13 | 83 | 0.0 | 1.6 | 0.00 | 0.00 | 0.00 | 65 | 1013.3 |
| 20260509132406 | 13 | 97 | 3.2 | 4.8 | 0.00 | 0.00 | 0.00 | 67 | 1013.0 |
| 20260509131902 | 13 | 117 | 3.2 | 4.8 | 0.00 | 0.00 | 0.00 | 70 | 1012.9 |
| 20260509131359 | 13 | 120 | 3.2 | 4.8 | 0.00 | 0.00 | 0.00 | 67 | 1012.8 |
| 20260509130856 | 13 | 281 | 0.0 | 0.0 | 0.00 | 0.00 | 0.00 | 69 | 1013.0 |
| 20260509130351 | 13 | 281 | 1.6 | 3.2 | 0.00 | 0.00 | 0.00 | 67 | 1012.8 |
| 20260509125848 | 12 | 260 | 0.0 | 0.0 | 0.00 | 0.00 | 0.00 | 66 | 1012.9 |
| 20260509125344 | 12 | 260 | 1.6 | 1.6 | 0.00 | 0.00 | 0.00 | 69 | 1012.9 |
| 20260509124841 | 12 | 194 | 1.6 | 1.6 | 0.00 | 0.00 | 0.00 | 73 | 1012.9 |
| 20260509124338 | 12 | 182 | 0.0 | 1.6 | 0.00 | 0.00 | 0.00 | 72 | 1012.8 |
| 20260509123836 | 12 | 163 | 1.6 | 1.6 | 0.00 | 0.00 | 0.00 | 76 | 1012.7 |
| 20260509123333 | 12 | 269 | 0.0 | 0.0 | 0.00 | 0.00 | 0.00 | 72 | 1012.7 |
| 20260509122828 | 12 | 269 | 0.0 | 0.0 | 0.00 | 0.00 | 0.00 | 74 | 1012.9 |
| 20260509122325 | 12 | 269 | 0.0 | 0.0 | 0.00 | 0.00 | 0.00 | 73 | 1012.9 |
| 20260509121823 | 12 | 270 | 0.0 | 1.6 | 0.00 | 0.00 | 0.00 | 70 | 1012.9 |
| 20260509121320 | 12 | 293 | 1.6 | 3.2 | 0.00 | 0.00 | 0.00 | 65 | 1012.8 |
| 20260509120819 | 11 | 293 | 1.6 | 4.8 | 0.00 | 0.00 | 0.00 | 65 | 1013.1 |
| 20260509120316 | 11 | 296 | 3.2 | 4.8 | 0.00 | 0.00 | 0.00 | 67 | 1012.9 |
| 20260509115814 | 11 | 338 | 6.4 | 6.4 | 0.00 | 0.00 | 0.00 | 67 | 1012.9 |
| 20260509115311 | 11 | 356 | 1.6 | 4.8 | 0.00 | 0.00 | 0.00 | 70 | 1013.0 |
| 20260509114809 | 11 | 232 | 0.0 | 0.0 | 0.00 | 0.00 | 0.00 | 71 | 1013.0 |
| 20260509114307 | 11 | 232 | 0.0 | 0.0 | 0.00 | 0.00 | 0.00 | 69 | 1013.0 |
| 20260509113806 | 11 | 232 | 0.0 | 0.0 | 0.00 | 0.00 | 0.00 | 69 | 1013.0 |
| 20260509113302 | 11 | 233 | 0.0 | 0.0 | 0.00 | 0.00 | 0.00 | 70 | 1013.0 |
| 20260509112759 | 11 | 232 | 0.0 | 0.0 | 0.00 | 0.00 | 0.00 | 67 | 1013.0 |
| 20260509112256 | 11 | 232 | 0.0 | 0.0 | 0.00 | 0.00 | 0.00 | 69 | 1012.9 |
| 20260509111753 | 11 | 253 | 3.2 | 3.2 | 0.00 | 0.00 | 0.00 | 61 | 1012.8 |
| 20260509111250 | 11 | 275 | 3.2 | 4.8 | 0.00 | 0.00 | 0.00 | 65 | 1012.8 |
| 20260509110748 | 11 | 261 | 3.2 | 3.2 | 0.00 | 0.00 | 0.00 | 65 | 1012.8 |
| 20260509110244 | 11 | 256 | 3.2 | 3.2 | 0.00 | 0.00 | 0.00 | 67 | 1012.8 |
| 20260509105742 | 11 | 307 | 4.8 | 4.8 | 0.00 | 0.00 | 0.00 | 66 | 1012.8 |
| 20260509105239 | 11 | 302 | 3.2 | 4.8 | 0.00 | 0.00 | 0.00 | 66 | 1012.8 |
| 20260509104736 | 11 | 290 | 1.6 | 1.6 | 0.00 | 0.00 | 0.00 | 64 | 1012.5 |
| 20260509104233 | 11 | 287 | 0.0 | 1.6 | 0.00 | 0.00 | 0.00 | 64 | 1012.5 |
| 20260509103731 | 11 | 288 | 1.6 | 1.6 | 0.00 | 0.00 | 0.00 | 65 | 1012.6 |
| 20260509103228 | 11 | 276 | 3.2 | 3.2 | 0.00 | 0.00 | 0.00 | 65 | 1012.6 |
| 20260509102726 | 11 | 267 | 1.6 | 3.2 | 0.00 | 0.00 | 0.00 | 66 | 1012.7 |
| 20260509102223 | 11 | 299 | 1.6 | 3.2 | 0.00 | 0.00 | 0.00 | 63 | 1012.5 |
| 20260509101719 | 11 | 321 | 0.0 | 3.2 | 0.00 | 0.00 | 0.00 | 62 | 1012.6 |
| 20260509101215 | 11 | 254 | 1.6 | 1.6 | 0.00 | 0.00 | 0.00 | 63 | 1012.5 |
| 20260509100713 | 11 | 252 | 1.6 | 1.6 | 0.00 | 0.00 | 0.00 | 66 | 1012.7 |
| 20260509100210 | 11 | 253 | 1.6 | 3.2 | 0.00 | 0.00 | 0.00 | 67 | 1012.7 |
| 20260509095707 | 10 | 309 | 3.2 | 4.8 | 0.00 | 0.00 | 0.00 | 69 | 1012.6 |
| 20260509095204 | 10 | 343 | 1.6 | 3.2 | 0.00 | 0.00 | 0.00 | 70 | 1012.4 |
| 20260509094700 | 11 | 5 | 1.6 | 3.2 | 0.00 | 0.00 | 0.00 | 69 | 1012.3 |
| 20260509094157 | 11 | 141 | 0.0 | 0.0 | 0.00 | 0.00 | 0.00 | 67 | 1012.5 |
| 20260509093656 | 11 | 185 | 0.0 | 0.0 | 0.00 | 0.00 | 0.00 | 64 | 1012.6 |
| 20260509093152 | 12 | 184 | 0.0 | 0.0 | 0.00 | 0.00 | 0.00 | 63 | 1012.6 |
| 20260509092650 | 12 | 268 | 1.6 | 1.6 | 0.00 | 0.00 | 0.00 | 60 | 1012.7 |
| 20260509092144 | 12 | 268 | 1.6 | 3.2 | 0.00 | 0.00 | 0.00 | 60 | 1012.5 |
| 20260509091641 | 11 | 250 | 0.0 | 0.0 | 0.00 | 0.00 | 0.00 | 60 | 1012.5 |
| 20260509091137 | 11 | 250 | 0.0 | 0.0 | 0.00 | 0.00 | 0.00 | 62 | 1012.5 |
| 20260509090635 | 12 | 250 | 0.0 | 0.0 | 0.00 | 0.00 | 0.00 | 63 | 1012.7 |
| 20260509090132 | 11 | 250 | 0.0 | 0.0 | 0.00 | 0.00 | 0.00 | 60 | 1012.5 |
| 20260509085629 | 11 | 250 | 0.0 | 0.0 | 0.00 | 0.00 | 0.00 | 63 | 1012.8 |
| 20260509085125 | 11 | 250 | 0.0 | 0.0 | 0.00 | 0.00 | 0.00 | 66 | 1012.8 |
| 20260509084623 | 11 | 250 | 0.0 | 0.0 | 0.00 | 0.00 | 0.00 | 66 | 1012.8 |
| 20260509084120 | 11 | 249 | 0.0 | 0.0 | 0.00 | 0.00 | 0.00 | 65 | 1012.9 |
| 20260509083617 | 11 | 250 | 0.0 | 0.0 | 0.00 | 0.00 | 0.00 | 65 | 1012.9 |
| 20260509083113 | 11 | 253 | 0.0 | 0.0 | 0.00 | 0.00 | 0.00 | 65 | 1012.9 |
| 20260509082611 | 11 | 265 | 0.0 | 0.0 | 0.00 | 0.00 | 0.00 | 65 | 1012.9 |
| 20260509082107 | 11 | 279 | 0.0 | 0.0 | 0.00 | 0.00 | 0.00 | 66 | 1013.0 |
| 20260509081605 | 11 | 280 | 0.0 | 0.0 | 0.00 | 0.00 | 0.00 | 64 | 1013.1 |
| 20260509081101 | 11 | 281 | 0.0 | 0.0 | 0.00 | 0.00 | 0.00 | 64 | 1012.8 |
| 20260509080600 | 11 | 280 | 0.0 | 1.6 | 0.00 | 0.00 | 0.00 | 64 | 1012.9 |
| 20260509080057 | 11 | 280 | 0.0 | 1.6 | 0.00 | 0.00 | 0.00 | 66 | 1013.0 |
| 20260509075555 | 11 | 279 | 0.0 | 1.6 | 0.00 | 0.00 | 0.00 | 67 | 1013.0 |
| 20260509075053 | 11 | 300 | 3.2 | 3.2 | 0.00 | 0.00 | 0.00 | 65 | 1012.8 |
| 20260509074549 | 11 | 279 | 1.6 | 1.6 | 0.00 | 0.00 | 0.00 | 64 | 1012.9 |
| 20260509074046 | 11 | 278 | 0.0 | 0.0 | 0.00 | 0.00 | 0.00 | 64 | 1012.9 |
| 20260509073543 | 11 | 283 | 1.6 | 3.2 | 0.00 | 0.00 | 0.00 | 64 | 1012.9 |
| 20260509073039 | 11 | 273 | 1.6 | 3.2 | 0.00 | 0.00 | 0.00 | 64 | 1012.9 |
| 20260509072535 | 11 | 250 | 0.0 | 1.6 | 0.00 | 0.00 | 0.00 | 65 | 1013.0 |
| 20260509072032 | 11 | 215 | 0.0 | 0.0 | 0.00 | 0.00 | 0.00 | 65 | 1012.9 |
| 20260509071529 | 11 | 215 | 0.0 | 0.0 | 0.00 | 0.00 | 0.00 | 65 | 1013.0 |
| 20260509071027 | 11 | 215 | 0.0 | 0.0 | 0.00 | 0.00 | 0.00 | 64 | 1012.9 |
| 20260509070524 | 11 | 215 | 0.0 | 0.0 | 0.00 | 0.00 | 0.00 | 63 | 1013.0 |
| 20260509070020 | 11 | 215 | 0.0 | 0.0 | 0.00 | 0.00 | 0.00 | 63 | 1012.9 |
| 20260509065515 | 11 | 215 | 0.0 | 0.0 | 0.00 | 0.00 | 0.00 | 63 | 1012.9 |
| 20260509065012 | 11 | 215 | 0.0 | 1.6 | 0.00 | 0.00 | 0.00 | 64 | 1013.0 |
| 20260509064510 | 11 | 170 | 0.0 | 0.0 | 0.00 | 0.00 | 0.00 | 64 | 1013.1 |
| 20260509064008 | 11 | 139 | 0.0 | 0.0 | 0.00 | 0.00 | 0.00 | 64 | 1013.0 |
| 20260509063502 | 11 | 137 | 0.0 | 3.2 | 0.00 | 0.00 | 0.00 | 64 | 1013.1 |
| 20260509063000 | 11 | 253 | 1.6 | 3.2 | 0.00 | 0.00 | 0.00 | 62 | 1013.2 |
| 20260509062457 | 11 | 260 | 1.6 | 1.6 | 0.00 | 0.00 | 0.00 | 62 | 1013.2 |
| 20260509061955 | 11 | 260 | 0.0 | 0.0 | 0.00 | 0.00 | 0.00 | 63 | 1013.1 |
| 20260509061452 | 11 | 261 | 1.6 | 1.6 | 0.00 | 0.00 | 0.00 | 65 | 1013.3 |
| 20260509060949 | 11 | 261 | 1.6 | 3.2 | 0.00 | 0.00 | 0.00 | 66 | 1013.5 |
| 20260509060446 | 10 | 294 | 4.8 | 4.8 | 0.00 | 0.00 | 0.00 | 67 | 1013.4 |
| 20260509055942 | 10 | 231 | 0.0 | 0.0 | 0.00 | 0.00 | 0.00 | 66 | 1013.4 |
| 20260509055437 | 11 | 231 | 0.0 | 0.0 | 0.00 | 0.00 | 0.00 | 65 | 1013.3 |
| 20260509054934 | 11 | 233 | 0.0 | 1.6 | 0.00 | 0.00 | 0.00 | 62 | 1013.5 |
| 20260509054431 | 11 | 211 | 0.0 | 0.0 | 0.00 | 0.00 | 0.00 | 64 | 1013.6 |
| 20260509053929 | 11 | 210 | 0.0 | 0.0 | 0.00 | 0.00 | 0.00 | 65 | 1013.3 |
| 20260509053426 | 11 | 195 | 0.0 | 0.0 | 0.00 | 0.00 | 0.00 | 63 | 1013.6 |
| 20260509052924 | 12 | 157 | 0.0 | 0.0 | 0.00 | 0.00 | 0.00 | 62 | 1013.4 |
| 20260509052421 | 12 | 260 | 0.0 | 0.0 | 0.00 | 0.00 | 0.00 | 57 | 1013.4 |
| 20260509051919 | 12 | 260 | 0.0 | 0.0 | 0.00 | 0.00 | 0.00 | 59 | 1013.5 |
| 20260509051417 | 12 | 260 | 0.0 | 0.0 | 0.00 | 0.00 | 0.00 | 60 | 1013.7 |
| 20260509050913 | 12 | 259 | 0.0 | 0.0 | 0.00 | 0.00 | 0.00 | 61 | 1013.8 |
| 20260509050410 | 12 | 259 | 0.0 | 0.0 | 0.00 | 0.00 | 0.00 | 60 | 1013.6 |
| 20260509045907 | 12 | 259 | 0.0 | 0.0 | 0.00 | 0.00 | 0.00 | 59 | 1013.6 |
| 20260509045404 | 12 | 261 | 0.0 | 0.0 | 0.00 | 0.00 | 0.00 | 58 | 1013.6 |